Time;durP1;ratioP1;P1;durP2;ratioP2;P2;SDS_P1;SDS_P2;PMS_P1;PMS_P2;Temp;Humidity;BMP_temperature;BMP_pressure;BME280_temperature;BME280_humidity;BME280_pressure;Samples;Min_cycle;Max_cycle;Signal;HPM_P1;HPM_P2
2021/01/03 00:02:33;;;;;;;71.35;30.20;;;;;;;0.00;85.21;98811.94;2082857;85;21146;-64
2021/01/03 00:05:35;;;;;;;66.35;29.72;;;;;;;0.02;85.36;98810.62;2076794;86;21323;-63
2021/01/03 00:08:37;;;;;;;64.42;28.75;;;;;;;0.07;85.34;98803.63;2082579;85;21719;-63
2021/01/03 00:11:40;;;;;;;71.10;30.35;;;;;;;0.15;85.38;98809.05;2062890;85;21716;-63
2021/01/03 00:14:42;;;;;;;77.08;34.03;;;;;;;0.23;85.21;98803.77;2076841;86;21308;-64
2021/01/03 00:17:45;;;;;;;73.05;34.03;;;;;;;0.23;85.11;98810.22;2082423;85;21620;-63
2021/01/03 00:20:48;;;;;;;;;;;;;;;;;;2078944;86;21166;-63
2021/01/03 00:23:50;;;;;;;186.90;87.10;;;;;;;0.37;84.69;98818.11;2047609;86;20168;-63
2021/01/03 00:26:52;;;;;;;100.53;45.03;;;;;;;0.40;84.73;98817.59;2082615;85;22212;-65
2021/01/03 00:29:54;;;;;;;;;;;;;;;0.47;84.72;98823.50;2048452;86;21344;-63
2021/01/03 00:32:56;;;;;;;105.63;42.95;;;;;;;0.49;84.45;98826.92;2118474;84;20251;-64
2021/01/03 00:35:59;;;;;;;77.40;32.35;;;;;;;0.47;84.35;98828.20;2082302;85;21319;-63
2021/01/03 00:39:01;;;;;;;47.62;20.45;;;;;;;0.43;84.17;98825.30;2077009;86;21347;-66
2021/01/03 00:42:03;;;;;;;52.70;23.85;;;;;;;0.42;84.86;98827.47;2082446;85;21288;-63
2021/01/03 00:45:05;;;;;;;50.88;22.32;;;;;;;;;;2067585;86;21199;-64
2021/01/03 00:48:07;;;;;;;60.43;26.00;;;;;;;0.49;84.55;98828.20;2124737;83;21288;-63
2021/01/03 00:51:09;;;;;;;63.90;30.40;;;;;;;0.44;84.41;98820.98;2124894;83;21289;-63
2021/01/03 00:54:11;;;;;;;55.00;25.20;;;;;;;0.35;84.25;98815.56;2124598;84;21309;-64
2021/01/03 00:57:14;;;;;;;56.50;24.72;;;;;;;0.20;84.50;98813.27;2124891;84;21273;-64
2021/01/03 01:00:16;;;;;;;56.02;25.90;;;;;;;0.10;84.71;98814.75;2125032;83;21115;-63
2021/01/03 01:03:20;;;;;;;61.68;29.37;;;;;;;0.13;84.93;98816.40;2104390;84;21290;-63
2021/01/03 01:06:23;;;;;;;85.55;40.52;;;;;;;0.18;84.91;98809.89;2124517;83;21308;-63
2021/01/03 01:09:25;;;;;;;68.87;31.90;;;;;;;0.24;85.08;98804.60;2082417;85;21332;-63
2021/01/03 01:12:27;;;;;;;64.25;30.17;;;;;;;0.22;84.84;98803.34;2067664;86;21175;-63
2021/01/03 01:15:29;;;;;;;74.53;32.65;;;;;;;0.09;84.75;98805.30;2082506;85;21740;-64
2021/01/03 01:18:31;;;;;;;74.50;32.15;;;;;;;0.03;84.79;98805.43;2067592;85;21317;-63
2021/01/03 01:21:34;;;;;;;73.57;32.75;;;;;;;0.00;85.01;98805.49;2082251;85;21359;-63
2021/01/03 01:24:36;;;;;;;69.65;32.05;;;;;;;0.00;84.90;98802.91;2082417;85;21344;-66
2021/01/03 01:27:39;;;;;;;55.23;24.02;;;;;;;0.02;85.01;98805.01;2076497;86;21169;-65
2021/01/03 01:30:41;;;;;;;51.33;21.87;;;;;;;0.17;85.62;98802.57;2082745;85;21186;-64
2021/01/03 01:33:43;;;;;;;48.23;19.65;;;;;;;0.28;84.80;98803.22;2067269;86;21284;-66
2021/01/03 01:36:45;;;;;;;36.63;16.30;;;;;;;0.07;84.21;98802.34;2094173;84;21655;-64
2021/01/03 01:39:49;;;;;;;45.80;17.65;;;;;;;-0.20;84.79;98796.83;2107908;84;21162;-63
2021/01/03 01:42:51;;;;;;;42.60;17.48;;;;;;;-0.28;85.26;98798.68;2107887;84;21310;-64
2021/01/03 01:45:53;;;;;;;40.92;17.82;;;;;;;-0.36;85.53;98799.66;2108145;84;21172;-63
2021/01/03 01:48:55;;;;;;;41.60;17.37;;;;;;;-0.32;85.83;98798.31;2104208;84;21309;-63
2021/01/03 01:51:57;;;;;;;44.33;18.25;;;;;;;-0.23;85.85;98801.59;2128887;84;21717;-63
2021/01/03 01:54:59;;;;;;;43.58;18.98;;;;;;;-0.07;85.66;98797.42;2107873;84;21295;-63
2021/01/03 01:58:01;;;;;;;44.03;18.55;;;;;;;0.01;85.29;98789.56;2107503;84;21751;-63
2021/01/03 02:01:04;;;;;;;41.48;18.15;;;;;;;-0.03;85.34;98784.89;2108366;84;21328;-64
2021/01/03 02:04:06;;;;;;;43.48;18.82;;;;;;;0.02;85.30;98779.67;2107654;84;21706;-63
2021/01/03 02:07:08;;;;;;;60.12;25.50;;;;;;;0.01;84.95;98786.98;2107973;84;21120;-64
2021/01/03 02:10:10;;;;;;;60.85;27.70;;;;;;;0.08;85.26;98780.38;2128913;83;21305;-64
2021/01/03 02:13:12;;;;;;;45.48;20.60;;;;;;;0.19;85.29;98783.19;2128944;84;21709;-64
2021/01/03 02:16:15;;;;;;;47.23;23.30;;;;;;;0.23;85.40;98773.22;2107504;84;21311;-64
2021/01/03 02:19:17;;;;;;;43.80;19.12;;;;;;;0.25;85.25;98774.90;2107597;84;21161;-63
2021/01/03 02:22:19;;;;;;;41.20;17.62;;;;;;;0.19;84.43;98777.61;2108240;84;21162;-63
2021/01/03 02:25:21;;;;;;;41.28;18.62;;;;;;;0.19;84.38;98770.29;2107696;84;21624;-68
2021/01/03 02:28:23;;;;;;;44.93;19.32;;;;;;;0.19;84.49;98772.87;2107997;84;21167;-64
2021/01/03 02:31:26;;;;;;;40.45;17.90;;;;;;;0.22;84.64;98765.09;2107569;84;21318;-63
2021/01/03 02:34:28;;;;;;;48.38;19.30;;;;;;;0.16;84.77;98756.59;2107380;84;21283;-64
2021/01/03 02:37:30;;;;;;;45.60;18.85;;;;;;;0.12;84.53;98757.97;2088568;84;21754;-63
2021/01/03 02:40:32;;;;;;;50.30;21.02;;;;;;;0.07;85.10;98754.62;2077268;86;21337;-63
2021/01/03 02:43:34;;;;;;;46.85;18.80;;;;;;;0.08;84.79;98753.75;2131241;84;21200;-64
2021/01/03 02:46:37;;;;;;;48.17;19.25;;;;;;;0.05;84.61;98750.78;2131623;84;21315;-63
2021/01/03 02:49:39;;;;;;;45.92;19.90;;;;;;;0.08;84.90;98738.28;2131512;83;21283;-63
2021/01/03 02:52:41;;;;;;;46.53;20.20;;;;;;;0.10;84.22;98738.66;2131282;83;21160;-63
2021/01/03 02:55:44;;;;;;;34.73;15.32;;;;;;;0.00;84.41;98734.57;2131413;83;21160;-63
2021/01/03 02:58:46;;;;;;;36.10;15.78;;;;;;;-0.08;84.66;98730.83;2131530;83;21144;-63
2021/01/03 03:01:48;;;;;;;39.03;16.82;;;;;;;-0.13;84.83;98729.22;2131174;83;21279;-63
2021/01/03 03:04:50;;;;;;;38.25;16.40;;;;;;;-0.14;84.75;98726.22;2131544;84;21593;-63
2021/01/03 03:07:53;;;;;;;44.05;17.00;;;;;;;-0.08;84.84;98715.81;2131395;84;21739;-65
2021/01/03 03:10:55;;;;;;;45.40;17.73;;;;;;;-0.04;84.64;98715.72;2131123;84;21221;-63
2021/01/03 03:13:57;;;;;;;53.40;21.93;;;;;;;-0.01;84.86;98715.65;2131552;84;21152;-64
2021/01/03 03:16:59;;;;;;;55.48;25.85;;;;;;;0.08;84.99;98717.19;2131408;83;21141;-65
2021/01/03 03:20:03;;;;;;;55.05;25.12;;;;;;;0.13;84.92;98706.77;2131392;83;21153;-63
2021/01/03 03:23:06;;;;;;;46.92;21.35;;;;;;;0.14;84.96;98711.93;2131070;83;21146;-64
2021/01/03 03:26:08;;;;;;;46.42;20.43;;;;;;;0.10;84.91;98705.55;2131171;83;21271;-63
2021/01/03 03:29:10;;;;;;;48.73;22.40;;;;;;;0.08;84.97;98699.59;2131544;83;21165;-63
2021/01/03 03:32:12;;;;;;;50.38;22.45;;;;;;;0.07;85.16;98706.91;2131390;84;21596;-63
2021/01/03 03:35:14;;;;;;;44.13;19.62;;;;;;;0.08;85.12;98700.88;2102891;84;21755;-63
2021/01/03 03:38:17;;;;;;;45.20;19.77;;;;;;;0.16;85.13;98695.97;2139455;83;21594;-64
2021/01/03 03:41:19;;;;;;;63.08;24.50;;;;;;;0.19;85.19;98696.34;2141363;83;21134;-63
2021/01/03 03:44:21;;;;;;;77.37;30.62;;;;;;;0.21;85.35;98694.57;2095738;85;21152;-63
2021/01/03 03:47:23;;;;;;;75.15;29.50;;;;;;;0.27;85.48;98689.73;2141505;83;21284;-63
2021/01/03 03:50:25;;;;;;;74.35;30.15;;;;;;;0.34;85.26;98688.29;2141787;83;21288;-64
2021/01/03 03:53:28;;;;;;;;;;;;;;;0.34;84.94;98691.30;2143760;83;21623;-63
2021/01/03 03:56:30;;;;;;;48.83;20.43;;;;;;;0.29;85.01;98690.56;2141456;83;20148;-66
2021/01/03 03:59:32;;;;;;;50.60;20.30;;;;;;;0.23;84.87;98689.37;2141793;83;21300;-64
2021/01/03 04:02:34;;;;;;;57.73;24.00;;;;;;;0.22;85.24;98687.70;2095401;85;21611;-64
2021/01/03 04:05:36;;;;;;;50.35;21.62;;;;;;;0.21;85.10;98683.42;2141274;83;21214;-63
2021/01/03 04:08:39;;;;;;;64.70;27.05;;;;;;;0.21;84.69;98682.97;2141808;83;21303;-63
2021/01/03 04:11:41;;;;;;;92.82;36.85;;;;;;;0.19;84.60;98686.03;2141342;83;21161;-63
2021/01/03 04:14:43;;;;;;;89.60;37.20;;;;;;;0.19;84.89;98689.03;2141424;83;21757;-64
2021/01/03 04:17:45;;;;;;;82.02;37.40;;;;;;;0.16;84.50;98683.07;2141550;83;21285;-64
2021/01/03 04:20:48;;;;;;;65.15;28.25;;;;;;;0.08;84.70;98677.66;2095179;85;21549;-63
2021/01/03 04:23:50;;;;;;;58.00;25.68;;;;;;;0.08;84.76;98679.80;2141342;83;21142;-64
2021/01/03 04:26:52;;;;;;;74.00;30.40;;;;;;;0.14;84.88;98676.23;2141689;83;21292;-63
2021/01/03 04:29:54;;;;;;;65.80;25.85;;;;;;;0.15;84.78;98672.78;2141633;83;21761;-64
2021/01/03 04:32:57;;;;;;;56.15;24.90;;;;;;;0.14;84.49;98668.50;2095548;85;21609;-62
2021/01/03 04:35:59;;;;;;;45.35;20.05;;;;;;;0.11;84.77;98662.95;2141599;83;21273;-64
2021/01/03 04:39:01;;;;;;;56.80;23.50;;;;;;;0.05;84.89;98658.39;2141431;83;21312;-63
2021/01/03 04:42:04;;;;;;;81.10;30.15;;;;;;;-0.04;84.87;98658.14;2141714;83;21765;-64
2021/01/03 04:45:06;;;;;;;;;;;;;;;-0.18;85.26;98647.66;2144034;83;21705;-63
2021/01/03 04:48:08;;;;;;;179.00;61.93;;;;;;;-0.20;85.29;98642.98;2141620;83;20259;-63
2021/01/03 04:51:11;;;;;;;59.03;23.07;;;;;;;-0.19;85.38;98647.27;2141625;83;21559;-64
2021/01/03 04:54:13;;;;;;;49.40;18.57;;;;;;;-0.20;85.47;98653.74;2141753;83;21269;-63
2021/01/03 04:57:15;;;;;;;43.13;18.25;;;;;;;-0.21;85.75;98653.33;2141927;83;21321;-63
2021/01/03 05:00:18;;;;;;;77.22;29.50;;;;;;;-0.24;85.64;98649.07;2095490;85;21161;-63
2021/01/03 05:03:20;;;;;;;92.40;38.63;;;;;;;-0.24;85.75;98647.78;2141835;83;21293;-64
2021/01/03 05:06:24;;;;;;;76.67;33.42;;;;;;;-0.26;85.93;98636.67;2095641;85;21559;-63
2021/01/03 05:09:26;;;;;;;112.80;47.05;;;;;;;-0.31;86.10;98639.77;2141470;83;21724;-63
2021/01/03 05:12:29;;;;;;;69.72;31.50;;;;;;;-0.31;86.42;98632.48;2141465;83;21293;-63
2021/01/03 05:15:33;;;;;;;59.80;23.87;;;;;;;-0.38;86.63;98627.88;2141656;83;21745;-63
2021/01/03 05:18:35;;;;;;;40.60;16.77;;;;;;;-0.39;86.50;98636.48;2141430;83;21753;-63
2021/01/03 05:21:37;;;;;;;39.35;16.00;;;;;;;-0.42;86.93;98629.66;2095532;85;21177;-64
2021/01/03 05:24:39;;;;;;;40.80;16.62;;;;;;;-0.45;86.46;98627.59;2141701;83;21290;-63
2021/01/03 05:27:41;;;;;;;42.50;16.85;;;;;;;-0.46;86.66;98624.59;2141462;83;21784;-63
2021/01/03 05:30:44;;;;;;;43.00;16.05;;;;;;;-0.46;86.52;98628.05;2141609;83;21276;-63
2021/01/03 05:33:46;;;;;;;37.53;16.93;;;;;;;-0.44;86.65;98634.45;2141953;83;21285;-63
2021/01/03 05:36:48;;;;;;;42.90;17.23;;;;;;;-0.41;86.34;98643.41;2139241;83;21293;-63
2021/01/03 05:39:50;;;;;;;41.65;16.62;;;;;;;-0.37;86.39;98643.77;2125108;83;21151;-64
2021/01/03 05:42:52;;;;;;;41.68;17.07;;;;;;;-0.30;86.26;98649.63;2082753;85;21312;-63
2021/01/03 05:45:54;;;;;;;43.78;18.95;;;;;;;-0.24;86.12;98646.50;2067305;86;21821;-64
2021/01/03 05:48:57;;;;;;;65.42;29.37;;;;;;;-0.25;85.68;98656.84;2082515;85;21303;-64
2021/01/03 05:51:59;;;;;;;61.83;27.15;;;;;;;-0.25;85.84;98647.81;2067630;86;21313;-64
2021/01/03 05:55:01;;;;;;;58.35;25.02;;;;;;;-0.42;85.48;98641.70;2082607;85;21157;-64
2021/01/03 05:58:03;;;;;;;46.83;19.85;;;;;;;-0.57;85.54;98642.86;2076693;86;21190;-64
2021/01/03 06:01:05;;;;;;;43.42;19.85;;;;;;;-0.58;86.44;98645.84;2082731;85;21307;-64
2021/01/03 06:04:07;;;;;;;38.67;14.93;;;;;;;-0.45;86.33;98646.92;2067413;86;21614;-64
2021/01/03 06:07:09;;;;;;;38.25;13.98;;;;;;;-0.41;86.09;98644.25;2082713;85;21295;-65
2021/01/03 06:10:11;;;;;;;44.98;18.15;;;;;;;-0.50;85.73;98650.01;2067439;86;21720;-66
2021/01/03 06:13:14;;;;;;;46.95;19.87;;;;;;;-0.50;85.65;98654.74;2082504;85;21300;-64
2021/01/03 06:16:16;;;;;;;51.40;22.65;;;;;;;-0.49;85.41;98665.44;2067356;86;21735;-66
2021/01/03 06:19:18;;;;;;;54.33;25.30;;;;;;;-0.38;85.67;98664.80;2082280;85;21280;-64
2021/01/03 06:22:20;;;;;;;52.50;22.73;;;;;;;-0.37;85.53;98657.94;2076588;86;21613;-63
2021/01/03 06:25:22;;;;;;;44.42;18.82;;;;;;;-0.39;85.21;98652.81;2082427;85;21324;-63
2021/01/03 06:28:24;;;;;;;46.98;20.27;;;;;;;-0.33;85.75;98636.38;2067192;86;21332;-64
2021/01/03 06:31:26;;;;;;;39.88;16.48;;;;;;;-0.29;84.47;98633.29;2082686;85;21315;-65
2021/01/03 06:34:28;;;;;;;44.45;18.02;;;;;;;-0.60;84.05;98636.48;2082965;85;21152;-63
2021/01/03 06:37:31;;;;;;;44.65;18.80;;;;;;;-0.71;84.85;98640.52;2089169;84;21545;-67
2021/01/03 06:40:34;;;;;;;34.15;14.13;;;;;;;-0.79;84.79;98634.23;2081483;84;21600;-63
2021/01/03 06:43:36;;;;;;;41.18;16.45;;;;;;;-0.95;84.82;98620.78;2107857;84;21159;-63
2021/01/03 06:46:38;;;;;;;98.60;40.35;;;;;;;-0.96;85.15;98626.80;2107775;84;21290;-63
2021/01/03 06:49:40;;;;;;;105.32;46.45;;;;;;;-0.94;85.28;98631.47;2108238;84;21131;-64
2021/01/03 06:52:42;;;;;;;90.75;39.83;;;;;;;-0.87;85.46;98623.21;2107321;84;21307;-63
2021/01/03 06:55:44;;;;;;;127.07;53.48;;;;;;;-0.81;85.63;98623.09;2107307;84;21299;-63
2021/01/03 06:58:47;;;;;;;144.00;58.50;;;;;;;-0.73;85.77;98627.67;2107484;84;21160;-63
2021/01/03 07:01:49;;;;;;;107.65;44.33;;;;;;;-0.78;85.49;98624.77;2107358;84;21305;-67
2021/01/03 07:04:51;;;;;;;119.30;50.70;;;;;;;-0.72;85.37;98622.94;2108195;84;21188;-63
2021/01/03 07:07:53;;;;;;;77.10;33.38;;;;;;;-0.63;85.28;98625.78;2107375;84;21319;-64
2021/01/03 07:10:55;;;;;;;60.17;24.80;;;;;;;-0.58;85.10;98624.40;2108221;84;21164;-67
2021/01/03 07:13:58;;;;;;;76.17;32.28;;;;;;;-0.63;85.18;98622.34;2104014;84;21280;-64
2021/01/03 07:17:00;;;;;;;79.40;31.62;;;;;;;-0.65;85.05;98623.66;2107480;84;21298;-69
2021/01/03 07:20:02;;;;;;;80.40;32.63;;;;;;;-0.62;85.09;98618.44;2108444;84;21317;-69
2021/01/03 07:23:04;;;;;;;78.00;32.05;;;;;;;-0.62;85.17;98621.02;2107359;84;21184;-65
2021/01/03 07:26:06;;;;;;;82.85;35.20;;;;;;;-0.51;85.32;98629.84;2107441;84;21587;-66
2021/01/03 07:29:08;;;;;;;74.85;30.85;;;;;;;-0.37;85.20;98628.30;2108184;84;21575;-65
2021/01/03 07:32:11;;;;;;;78.50;32.75;;;;;;;-0.28;85.47;98615.66;2107788;84;21196;-64
2021/01/03 07:35:13;;;;;;;68.95;31.12;;;;;;;-0.20;85.08;98626.67;2107577;84;21281;-64
2021/01/03 07:38:15;;;;;;;96.72;36.40;;;;;;;-0.16;84.80;98636.02;2107484;84;21612;-64
2021/01/03 07:41:17;;;;;;;72.82;32.20;;;;;;;-0.09;84.85;98632.88;2107791;84;21307;-64
2021/01/03 07:44:19;;;;;;;98.35;38.48;;;;;;;-0.04;84.49;98629.33;2107705;84;21299;-63
2021/01/03 07:47:22;;;;;;;123.28;42.48;;;;;;;0.06;84.81;98606.77;2107533;84;21710;-64
2021/01/03 07:50:24;;;;;;;84.17;34.33;;;;;;;0.19;84.57;98617.67;2107291;84;21738;-63
2021/01/03 07:53:29;;;;;;;;;;;;;;;0.18;84.36;98609.52;2110529;84;21626;-63
2021/01/03 07:56:31;;;;;;;84.90;35.80;;;;;;;0.27;84.11;98617.03;2085396;85;20175;-63
2021/01/03 07:59:35;;;;;;;73.45;31.40;;;;;;;0.43;84.20;98612.82;2107325;84;21283;-64
2021/01/03 08:02:37;;;;;;;79.05;34.25;;;;;;;0.47;83.69;98611.41;2108008;84;21152;-63
2021/01/03 08:05:39;;;;;;;69.47;30.45;;;;;;;0.43;83.64;98598.63;2107601;84;21711;-63
2021/01/03 08:08:42;;;;;;;60.58;26.93;;;;;;;0.43;83.64;98598.63;2108113;84;21171;-64
2021/01/03 08:11:44;;;;;;;60.73;25.85;;;;;;;0.44;83.75;98602.46;2107656;84;21806;-63
2021/01/03 08:14:46;;;;;;;65.87;27.77;;;;;;;0.41;83.88;98588.80;2108335;84;21329;-64
2021/01/03 08:17:48;;;;;;;66.10;25.15;;;;;;;0.40;83.77;98593.55;2107954;84;21152;-63
2021/01/03 08:20:52;;;;;;;64.77;29.63;;;;;;;0.46;84.02;98592.10;2107392;84;21148;-63
2021/01/03 08:23:54;;;;;;;71.87;29.35;;;;;;;0.55;84.13;98597.48;2108237;84;21175;-63
2021/01/03 08:26:56;;;;;;;64.50;29.07;;;;;;;0.78;84.39;98600.82;2107931;84;21148;-64
2021/01/03 08:29:58;;;;;;;62.48;27.62;;;;;;;1.01;83.72;98585.58;2107568;84;21798;-64
2021/01/03 08:33:00;;;;;;;53.33;24.55;;;;;;;1.09;83.77;98582.78;2107892;84;21188;-67
2021/01/03 08:36:02;;;;;;;55.88;23.73;;;;;;;1.24;83.61;98583.29;2107676;84;21715;-68
2021/01/03 08:39:04;;;;;;;55.90;23.20;;;;;;;1.34;83.65;98593.31;2107732;84;21217;-68
2021/01/03 08:42:06;;;;;;;52.53;22.80;;;;;;;1.51;83.83;98609.66;2107602;84;21755;-65
2021/01/03 08:45:09;;;;;;;36.10;13.62;;;;;;;1.73;83.75;98603.43;2108229;84;21302;-63
2021/01/03 08:48:11;;;;;;;34.98;12.28;;;;;;;1.92;83.02;98604.66;2107845;84;21299;-64
2021/01/03 08:51:13;;;;;;;29.27;11.38;;;;;;;1.99;82.78;98598.41;2108084;84;21171;-64
2021/01/03 08:54:18;;;;;;;30.43;10.55;;;;;;;2.10;82.69;98597.64;2107495;84;21290;-66
2021/01/03 08:57:21;;;;;;;28.47;9.63;;;;;;;2.22;82.84;98593.82;2107705;84;21707;-64
2021/01/03 09:00:23;;;;;;;26.50;9.63;;;;;;;2.29;82.48;98601.80;2107473;84;21290;-65
2021/01/03 09:03:25;;;;;;;28.38;10.08;;;;;;;2.48;82.61;98613.71;2066123;86;21307;-64
2021/01/03 09:06:27;;;;;;;32.05;11.63;;;;;;;2.67;82.58;98624.78;2107689;84;21319;-64
2021/01/03 09:09:30;;;;;;;31.85;11.68;;;;;;;2.74;82.26;98627.15;2108169;84;21313;-63
2021/01/03 09:12:32;;;;;;;30.82;11.45;;;;;;;2.89;82.27;98626.25;2107397;84;21219;-64
2021/01/03 09:15:34;;;;;;;30.45;11.63;;;;;;;3.03;82.14;98635.70;2106379;84;21186;-64
2021/01/03 09:18:36;;;;;;;31.77;11.70;;;;;;;3.05;81.77;98632.60;2106898;84;21798;-64
2021/01/03 09:21:39;;;;;;;28.07;9.93;;;;;;;3.12;81.92;98626.77;2107142;84;21742;-63
2021/01/03 09:24:41;;;;;;;27.75;9.78;;;;;;;3.16;81.34;98628.80;2066044;86;21294;-66
2021/01/03 09:27:43;;;;;;;28.67;9.95;;;;;;;3.12;81.42;98631.95;2107412;84;21296;-64
2021/01/03 09:30:45;;;;;;;27.75;9.40;;;;;;;3.09;81.19;98634.20;2065986;86;21757;-65
2021/01/03 09:33:47;;;;;;;34.67;13.18;;;;;;;3.10;81.05;98635.90;2107586;84;21271;-68
2021/01/03 09:36:50;;;;;;;31.00;9.65;;;;;;;3.10;81.59;98633.31;2107303;84;21750;-64
2021/01/03 09:39:52;;;;;;;31.73;11.05;;;;;;;3.10;80.03;98628.13;2087924;84;21186;-67
2021/01/03 09:42:54;;;;;;;29.12;9.93;;;;;;;3.09;81.19;98632.06;2082293;85;21307;-69
2021/01/03 09:45:57;;;;;;;28.62;11.10;;;;;;;3.09;81.20;98634.20;2081490;85;21339;-70
2021/01/03 09:48:59;;;;;;;;;;;;;;;3.12;80.81;98626.77;2047004;86;21815;-68
2021/01/03 09:52:01;;;;;;;28.90;10.27;;;;;;;3.05;81.36;98617.52;2118899;84;20231;-68
2021/01/03 09:55:03;;;;;;;26.60;10.15;;;;;;;3.14;81.45;98615.05;2082298;85;21307;-69
2021/01/03 09:58:06;;;;;;;;;;;;;;;3.20;81.17;98620.02;2048500;86;21143;-64
2021/01/03 10:01:09;;;;;;;26.82;9.55;;;;;;;3.21;81.24;98617.84;2118382;84;20409;-64
2021/01/03 10:04:11;;;;;;;32.45;12.75;;;;;;;3.31;81.45;98614.02;2118554;84;21155;-64
2021/01/03 10:07:13;;;;;;;41.42;16.32;;;;;;;3.44;81.05;98613.98;2082385;85;21312;-66
2021/01/03 10:10:16;;;;;;;39.40;16.20;;;;;;;3.49;81.00;98609.08;2082246;85;21303;-66
2021/01/03 10:13:18;;;;;;;31.62;11.93;;;;;;;3.51;80.79;98618.51;2082678;85;21169;-66
2021/01/03 10:16:21;;;;;;;34.05;13.05;;;;;;;3.51;79.49;98606.00;2082153;85;21153;-66
2021/01/03 10:19:23;;;;;;;33.60;13.78;;;;;;;3.51;80.40;98595.17;2082269;85;21153;-66
2021/01/03 10:22:25;;;;;;;35.95;14.07;;;;;;;3.46;80.39;98599.23;2076453;86;21186;-65
2021/01/03 10:25:27;;;;;;;33.00;12.37;;;;;;;3.54;80.89;98622.75;2082696;85;21320;-65
2021/01/03 10:28:29;;;;;;;37.40;13.78;;;;;;;3.58;80.52;98630.36;2076456;86;21142;-68
2021/01/03 10:31:31;;;;;;;33.15;13.58;;;;;;;3.66;80.32;98631.83;2082413;85;21300;-68
2021/01/03 10:34:33;;;;;;;34.73;12.33;;;;;;;3.67;80.42;98620.09;2082467;85;21300;-66
2021/01/03 10:37:36;;;;;;;33.63;13.62;;;;;;;3.68;79.75;98615.74;2082262;85;21292;-65
2021/01/03 10:40:38;;;;;;;34.00;12.43;;;;;;;3.63;80.07;98612.89;2100276;85;21175;-64
2021/01/03 10:43:40;;;;;;;37.17;14.93;;;;;;;3.67;80.27;98617.97;2107702;84;21298;-64
2021/01/03 10:46:42;;;;;;;39.67;16.60;;;;;;;3.67;79.58;98620.09;2107360;84;21270;-64
2021/01/03 10:49:44;;;;;;;40.60;16.05;;;;;;;3.69;80.36;98626.06;2108009;84;21224;-66
2021/01/03 10:52:47;;;;;;;39.35;17.42;;;;;;;3.76;80.27;98621.51;2107366;84;21290;-66
2021/01/03 10:55:49;;;;;;;33.95;14.40;;;;;;;3.85;80.07;98616.00;2107705;84;21290;-66
2021/01/03 10:58:51;;;;;;;36.73;15.18;;;;;;;3.83;79.66;98610.00;2107578;84;21310;-66
2021/01/03 11:01:53;;;;;;;33.60;13.62;;;;;;;3.88;80.16;98605.94;2083849;84;21190;-65
2021/01/03 11:04:56;;;;;;;;;;;;;;;3.92;79.70;98599.30;2109939;84;21298;-66
2021/01/03 11:07:59;;;;;;;33.17;13.57;;;;;;;3.90;79.72;98592.47;2107941;84;20226;-67
2021/01/03 11:11:01;;;;;;;35.92;13.65;;;;;;;3.93;79.90;98587.16;2107669;84;21108;-64
2021/01/03 11:14:04;;;;;;;39.45;15.50;;;;;;;4.02;80.14;98590.69;2107600;84;21274;-65
2021/01/03 11:17:06;;;;;;;32.93;14.05;;;;;;;4.13;80.25;98578.15;2107527;84;21286;-64
2021/01/03 11:20:08;;;;;;;;;;;;;;;4.22;79.51;98578.70;2109871;84;21273;-65
2021/01/03 11:23:11;;;;;;;36.77;14.80;;;;;;;4.22;79.49;98574.81;2107477;84;20504;-65
2021/01/03 11:26:13;;;;;;;32.90;12.68;;;;;;;4.23;78.72;98571.31;2107569;84;21289;-65
2021/01/03 11:29:15;;;;;;;32.88;12.70;;;;;;;4.23;78.72;98571.31;2107478;84;21305;-64
2021/01/03 11:32:18;;;;;;;31.73;12.58;;;;;;;4.23;79.32;98570.86;2107473;84;21726;-65
2021/01/03 11:35:23;;;;;;;36.73;15.38;;;;;;;4.15;79.18;98569.87;2107754;84;21300;-64
2021/01/03 11:38:26;;;;;;;36.73;15.63;;;;;;;4.19;79.41;98581.42;2103263;84;21706;-65
2021/01/03 11:41:29;;;;;;;30.52;11.83;;;;;;;4.17;79.19;98580.19;2062348;86;21315;-64
2021/01/03 11:44:31;;;;;;;28.52;11.48;;;;;;;4.15;79.07;98584.14;2082169;85;21288;-65
2021/01/03 11:47:33;;;;;;;31.12;11.15;;;;;;;4.22;78.89;98582.59;2082422;85;21732;-65
2021/01/03 11:50:35;;;;;;;33.55;11.75;;;;;;;4.19;78.97;98575.77;2067159;86;21312;-65
2021/01/03 11:53:37;;;;;;;40.48;14.98;;;;;;;4.20;78.51;98571.44;2082240;85;21279;-65
2021/01/03 11:56:40;;;;;;;53.52;21.95;;;;;;;4.13;78.54;98575.55;2082391;86;21589;-64
2021/01/03 11:59:42;;;;;;;47.38;22.73;;;;;;;4.07;78.39;98571.07;2067235;86;21170;-64
2021/01/03 12:02:44;;;;;;;57.00;25.60;;;;;;;3.92;78.81;98566.00;2082675;85;21178;-64
2021/01/03 12:05:46;;;;;;;49.90;22.70;;;;;;;3.75;78.82;98564.03;2067427;86;21304;-64
2021/01/03 12:08:49;;;;;;;35.85;14.05;;;;;;;3.75;79.36;98571.38;2082322;85;21732;-66
2021/01/03 12:11:52;;;;;;;31.48;12.20;;;;;;;3.80;79.33;98568.14;2076271;86;21181;-64
2021/01/03 12:14:54;;;;;;;33.45;12.10;;;;;;;3.85;79.23;98564.11;2082196;86;21303;-64
2021/01/03 12:17:57;;;;;;;32.55;12.33;;;;;;;3.88;79.14;98560.09;2067220;86;21744;-65
2021/01/03 12:20:59;;;;;;;31.23;11.70;;;;;;;3.92;79.20;98559.51;2082321;85;21217;-64
2021/01/03 12:24:01;;;;;;;33.63;11.80;;;;;;;3.96;78.95;98554.59;2067120;86;21300;-65
2021/01/03 12:27:03;;;;;;;33.60;11.50;;;;;;;4.01;78.97;98555.28;2082632;85;21308;-64
2021/01/03 12:30:05;;;;;;;31.37;11.68;;;;;;;4.06;78.95;98560.28;2082207;85;21291;-64
2021/01/03 12:33:08;;;;;;;38.53;12.82;;;;;;;4.12;78.81;98555.71;2082611;85;21319;-64
2021/01/03 12:36:10;;;;;;;38.65;13.72;;;;;;;4.23;79.05;98557.04;2076820;86;21151;-64
2021/01/03 12:39:12;;;;;;;37.67;13.43;;;;;;;4.27;78.61;98556.84;2088954;84;21316;-64
2021/01/03 12:42:14;;;;;;;35.33;13.20;;;;;;;4.37;78.84;98558.63;2087268;85;21568;-65
2021/01/03 12:45:16;;;;;;;34.25;12.18;;;;;;;4.41;78.65;98553.71;2087145;85;21640;-64
2021/01/03 12:48:19;;;;;;;30.85;10.63;;;;;;;4.45;78.50;98555.28;2123168;84;21184;-65
2021/01/03 12:51:21;;;;;;;32.05;10.90;;;;;;;4.51;78.20;98559.36;2123469;84;21314;-65
2021/01/03 12:54:23;;;;;;;32.55;11.03;;;;;;;4.55;78.32;98560.92;2098921;84;21719;-64
2021/01/03 12:57:25;;;;;;;33.25;11.75;;;;;;;4.58;77.94;98556.91;2123396;84;21140;-65
2021/01/03 13:00:28;;;;;;;32.13;11.68;;;;;;;4.59;78.08;98553.87;2123421;84;21139;-64
2021/01/03 13:03:30;;;;;;;30.55;10.68;;;;;;;4.66;77.71;98556.14;2123494;84;21718;-64
2021/01/03 13:06:32;;;;;;;28.70;10.85;;;;;;;4.73;77.78;98562.41;2123374;84;21169;-64
2021/01/03 13:09:35;;;;;;;30.32;10.08;;;;;;;4.75;77.55;98564.47;2123240;84;21773;-65
2021/01/03 13:12:40;;;;;;;27.35;9.65;;;;;;;4.80;76.83;98565.97;2123340;84;21152;-64
2021/01/03 13:15:43;;;;;;;27.75;9.23;;;;;;;4.75;76.98;98560.58;2123152;84;21160;-65
2021/01/03 13:18:47;;;;;;;26.75;10.10;;;;;;;4.76;77.07;98560.51;2123479;84;21753;-65
2021/01/03 13:21:51;;;;;;;28.17;10.10;;;;;;;4.77;77.02;98550.95;2098550;84;21314;-65
2021/01/03 13:24:53;;;;;;;28.17;9.90;;;;;;;4.77;76.98;98555.71;2123338;84;21298;-64
2021/01/03 13:27:55;;;;;;;27.50;8.60;;;;;;;4.82;77.24;98558.95;2123613;84;21298;-66
2021/01/03 13:30:58;;;;;;;29.00;9.03;;;;;;;4.85;77.30;98560.58;2098812;84;21302;-65
2021/01/03 13:34:00;;;;;;;28.40;10.05;;;;;;;4.87;77.02;98558.77;2123589;84;21718;-65
2021/01/03 13:37:02;;;;;;;32.03;11.53;;;;;;;4.84;76.53;98552.38;2123805;84;21307;-65
2021/01/03 13:40:07;;;;;;;31.37;10.40;;;;;;;4.81;76.96;98555.11;2130154;83;21311;-65
2021/01/03 13:43:09;;;;;;;33.80;11.73;;;;;;;4.81;76.99;98557.28;2091565;85;21137;-65
2021/01/03 13:46:11;;;;;;;30.55;10.88;;;;;;;4.79;76.51;98562.98;2076502;86;21166;-64
2021/01/03 13:49:14;;;;;;;28.02;9.95;;;;;;;4.74;76.64;98566.67;2091642;85;21287;-64
2021/01/03 13:52:16;;;;;;;28.80;10.75;;;;;;;4.70;76.96;98568.56;2076490;86;21189;-66
2021/01/03 13:55:18;;;;;;;;;;;;;;;4.63;76.90;98573.16;2093768;85;21307;-64
2021/01/03 13:58:23;;;;;;;29.48;9.98;;;;;;;4.58;77.06;98572.95;2076619;86;20462;-64
2021/01/03 14:01:28;;;;;;;29.00;10.53;;;;;;;4.47;76.63;98566.91;2091298;85;21284;-64
2021/01/03 14:04:30;;;;;;;27.58;9.80;;;;;;;4.36;76.99;98558.23;2091683;85;21196;-64
2021/01/03 14:07:32;;;;;;;29.63;10.10;;;;;;;4.38;77.41;98575.88;2064071;85;21738;-64
2021/01/03 14:10:34;;;;;;;27.13;8.60;;;;;;;4.42;77.43;98570.13;2091454;85;21205;-64